sensor_id;sensor_type;location;lat;lon;timestamp;temperature;humidity
21353;DHT22;10834;52.268;6.770;2022-10-16T00:01:25;11.60;99.90
21353;DHT22;10834;52.268;6.770;2022-10-16T00:04:12;11.60;99.90
21353;DHT22;10834;52.268;6.770;2022-10-16T00:06:58;11.60;99.90
21353;DHT22;10834;52.268;6.770;2022-10-16T00:09:45;11.50;99.90
21353;DHT22;10834;52.268;6.770;2022-10-16T00:12:31;11.50;99.90
21353;DHT22;10834;52.268;6.770;2022-10-16T00:15:17;11.40;99.90
21353;DHT22;10834;52.268;6.770;2022-10-16T00:18:04;11.40;99.90
21353;DHT22;10834;52.268;6.770;2022-10-16T00:20:51;11.40;99.90
21353;DHT22;10834;52.268;6.770;2022-10-16T00:23:38;11.40;99.90
21353;DHT22;10834;52.268;6.770;2022-10-16T00:26:25;11.40;99.90
21353;DHT22;10834;52.268;6.770;2022-10-16T00:29:12;11.30;99.90
21353;DHT22;10834;52.268;6.770;2022-10-16T00:31:58;11.40;99.90
21353;DHT22;10834;52.268;6.770;2022-10-16T00:34:44;11.40;99.90
21353;DHT22;10834;52.268;6.770;2022-10-16T00:37:30;11.40;99.90
21353;DHT22;10834;52.268;6.770;2022-10-16T00:40:16;11.40;99.90
21353;DHT22;10834;52.268;6.770;2022-10-16T00:43:04;11.40;99.90
21353;DHT22;10834;52.268;6.770;2022-10-16T00:45:55;11.40;99.90
21353;DHT22;10834;52.268;6.770;2022-10-16T00:48:43;11.40;99.90
21353;DHT22;10834;52.268;6.770;2022-10-16T00:51:42;11.40;99.90
21353;DHT22;10834;52.268;6.770;2022-10-16T00:54:32;11.40;99.90
21353;DHT22;10834;52.268;6.770;2022-10-16T00:57:19;11.40;99.90
21353;DHT22;10834;52.268;6.770;2022-10-16T01:00:08;11.40;99.90
21353;DHT22;10834;52.268;6.770;2022-10-16T01:02:56;11.50;99.90
21353;DHT22;10834;52.268;6.770;2022-10-16T01:05:49;11.50;99.90
21353;DHT22;10834;52.268;6.770;2022-10-16T01:20:35;11.70;99.90
21353;DHT22;10834;52.268;6.770;2022-10-16T01:23:36;11.70;99.90
21353;DHT22;10834;52.268;6.770;2022-10-16T01:29:22;11.60;99.90
21353;DHT22;10834;52.268;6.770;2022-10-16T01:32:33;11.60;99.90
21353;DHT22;10834;52.268;6.770;2022-10-16T01:35:37;11.60;99.90
21353;DHT22;10834;52.268;6.770;2022-10-16T01:38:36;11.50;99.90
21353;DHT22;10834;52.268;6.770;2022-10-16T01:41:41;11.60;99.90
21353;DHT22;10834;52.268;6.770;2022-10-16T01:44:31;11.50;99.90
21353;DHT22;10834;52.268;6.770;2022-10-16T01:47:21;11.60;99.90
21353;DHT22;10834;52.268;6.770;2022-10-16T01:50:08;11.60;99.90
21353;DHT22;10834;52.268;6.770;2022-10-16T01:52:56;11.60;99.90
21353;DHT22;10834;52.268;6.770;2022-10-16T01:55:46;11.60;99.90
21353;DHT22;10834;52.268;6.770;2022-10-16T01:58:36;11.70;99.90
21353;DHT22;10834;52.268;6.770;2022-10-16T02:01:26;11.70;99.90
21353;DHT22;10834;52.268;6.770;2022-10-16T02:07:13;11.60;99.90
21353;DHT22;10834;52.268;6.770;2022-10-16T02:10:00;11.60;99.90
21353;DHT22;10834;52.268;6.770;2022-10-16T02:12:58;11.60;99.90
21353;DHT22;10834;52.268;6.770;2022-10-16T02:15:45;11.50;99.90
21353;DHT22;10834;52.268;6.770;2022-10-16T02:18:31;11.50;99.90
21353;DHT22;10834;52.268;6.770;2022-10-16T02:21:28;11.50;99.90
21353;DHT22;10834;52.268;6.770;2022-10-16T02:28:07;11.50;99.90
21353;DHT22;10834;52.268;6.770;2022-10-16T02:31:04;11.60;99.90
21353;DHT22;10834;52.268;6.770;2022-10-16T02:33:53;11.60;99.90
21353;DHT22;10834;52.268;6.770;2022-10-16T02:36:41;11.60;99.90
21353;DHT22;10834;52.268;6.770;2022-10-16T02:39:28;11.60;99.90
21353;DHT22;10834;52.268;6.770;2022-10-16T02:42:17;11.60;99.90
21353;DHT22;10834;52.268;6.770;2022-10-16T02:45:04;11.60;99.90
21353;DHT22;10834;52.268;6.770;2022-10-16T02:47:51;11.60;99.90
21353;DHT22;10834;52.268;6.770;2022-10-16T02:50:37;11.70;99.90
21353;DHT22;10834;52.268;6.770;2022-10-16T02:53:23;11.70;99.90
21353;DHT22;10834;52.268;6.770;2022-10-16T02:56:09;11.70;99.90
21353;DHT22;10834;52.268;6.770;2022-10-16T02:58:55;11.70;99.90
21353;DHT22;10834;52.268;6.770;2022-10-16T03:01:41;11.70;99.90
21353;DHT22;10834;52.268;6.770;2022-10-16T03:04:27;11.80;99.90
21353;DHT22;10834;52.268;6.770;2022-10-16T03:07:13;11.80;99.90
21353;DHT22;10834;52.268;6.770;2022-10-16T03:09:59;11.80;99.90
21353;DHT22;10834;52.268;6.770;2022-10-16T03:12:46;11.90;99.90
21353;DHT22;10834;52.268;6.770;2022-10-16T03:15:32;12.00;99.90
21353;DHT22;10834;52.268;6.770;2022-10-16T03:18:18;12.00;99.90
21353;DHT22;10834;52.268;6.770;2022-10-16T03:21:04;12.00;99.90
21353;DHT22;10834;52.268;6.770;2022-10-16T03:23:50;12.00;99.90
21353;DHT22;10834;52.268;6.770;2022-10-16T03:26:36;12.10;99.90
21353;DHT22;10834;52.268;6.770;2022-10-16T03:29:22;12.10;99.90
21353;DHT22;10834;52.268;6.770;2022-10-16T03:32:08;12.10;99.90
21353;DHT22;10834;52.268;6.770;2022-10-16T03:34:54;12.10;99.90
21353;DHT22;10834;52.268;6.770;2022-10-16T03:37:42;12.20;99.90
21353;DHT22;10834;52.268;6.770;2022-10-16T03:40:28;12.20;99.90
21353;DHT22;10834;52.268;6.770;2022-10-16T03:43:14;12.10;99.90
21353;DHT22;10834;52.268;6.770;2022-10-16T03:46:00;12.10;99.90
21353;DHT22;10834;52.268;6.770;2022-10-16T03:48:46;12.00;99.90
21353;DHT22;10834;52.268;6.770;2022-10-16T03:51:32;11.90;99.90
21353;DHT22;10834;52.268;6.770;2022-10-16T03:54:18;11.90;99.90
21353;DHT22;10834;52.268;6.770;2022-10-16T03:57:04;11.90;99.90
21353;DHT22;10834;52.268;6.770;2022-10-16T03:59:50;11.80;99.90
21353;DHT22;10834;52.268;6.770;2022-10-16T04:02:36;11.80;99.90
21353;DHT22;10834;52.268;6.770;2022-10-16T04:05:22;11.80;99.90
21353;DHT22;10834;52.268;6.770;2022-10-16T04:08:08;11.90;99.90
21353;DHT22;10834;52.268;6.770;2022-10-16T04:10:54;12.00;99.90
21353;DHT22;10834;52.268;6.770;2022-10-16T04:13:40;12.00;99.90
21353;DHT22;10834;52.268;6.770;2022-10-16T04:16:27;12.10;99.90
21353;DHT22;10834;52.268;6.770;2022-10-16T04:19:13;12.10;99.90
21353;DHT22;10834;52.268;6.770;2022-10-16T04:21:59;12.10;99.90
21353;DHT22;10834;52.268;6.770;2022-10-16T04:24:45;12.10;99.90
21353;DHT22;10834;52.268;6.770;2022-10-16T04:27:31;12.10;99.90
21353;DHT22;10834;52.268;6.770;2022-10-16T04:30:17;12.10;99.90
21353;DHT22;10834;52.268;6.770;2022-10-16T04:33:03;12.00;99.90
21353;DHT22;10834;52.268;6.770;2022-10-16T04:35:56;12.00;99.90
21353;DHT22;10834;52.268;6.770;2022-10-16T04:38:42;12.00;99.90
21353;DHT22;10834;52.268;6.770;2022-10-16T04:41:28;12.00;99.90
21353;DHT22;10834;52.268;6.770;2022-10-16T04:44:14;11.90;99.90
21353;DHT22;10834;52.268;6.770;2022-10-16T04:47:00;11.90;99.90
21353;DHT22;10834;52.268;6.770;2022-10-16T04:49:47;11.80;99.90
21353;DHT22;10834;52.268;6.770;2022-10-16T04:52:33;11.90;99.90
21353;DHT22;10834;52.268;6.770;2022-10-16T04:55:19;11.80;99.90
21353;DHT22;10834;52.268;6.770;2022-10-16T04:58:05;11.80;99.90
21353;DHT22;10834;52.268;6.770;2022-10-16T05:00:51;11.80;99.90
21353;DHT22;10834;52.268;6.770;2022-10-16T05:03:37;11.90;99.90
21353;DHT22;10834;52.268;6.770;2022-10-16T05:06:23;12.00;99.90
21353;DHT22;10834;52.268;6.770;2022-10-16T05:09:09;12.00;99.90
21353;DHT22;10834;52.268;6.770;2022-10-16T05:11:55;12.00;99.90
21353;DHT22;10834;52.268;6.770;2022-10-16T05:14:42;12.10;99.90
21353;DHT22;10834;52.268;6.770;2022-10-16T05:17:28;12.20;99.90
21353;DHT22;10834;52.268;6.770;2022-10-16T05:20:14;12.20;99.90
21353;DHT22;10834;52.268;6.770;2022-10-16T05:23:00;12.20;99.90
21353;DHT22;10834;52.268;6.770;2022-10-16T05:25:55;12.20;99.90
21353;DHT22;10834;52.268;6.770;2022-10-16T05:28:43;12.20;99.90
21353;DHT22;10834;52.268;6.770;2022-10-16T05:31:29;12.20;99.90
21353;DHT22;10834;52.268;6.770;2022-10-16T05:34:15;12.20;99.90
21353;DHT22;10834;52.268;6.770;2022-10-16T05:37:02;12.20;99.90
21353;DHT22;10834;52.268;6.770;2022-10-16T05:39:48;12.10;99.90
21353;DHT22;10834;52.268;6.770;2022-10-16T05:42:34;12.10;99.90
21353;DHT22;10834;52.268;6.770;2022-10-16T05:45:20;12.10;99.90
21353;DHT22;10834;52.268;6.770;2022-10-16T05:48:06;12.10;99.90
21353;DHT22;10834;52.268;6.770;2022-10-16T05:51:04;12.10;99.90
21353;DHT22;10834;52.268;6.770;2022-10-16T05:53:50;12.00;99.90
21353;DHT22;10834;52.268;6.770;2022-10-16T05:56:37;12.00;99.90
21353;DHT22;10834;52.268;6.770;2022-10-16T05:59:23;11.90;99.90
21353;DHT22;10834;52.268;6.770;2022-10-16T06:02:13;11.90;99.90
21353;DHT22;10834;52.268;6.770;2022-10-16T06:04:59;11.90;99.90
21353;DHT22;10834;52.268;6.770;2022-10-16T06:07:45;11.80;99.90
21353;DHT22;10834;52.268;6.770;2022-10-16T06:10:31;11.80;99.90
21353;DHT22;10834;52.268;6.770;2022-10-16T06:13:17;11.80;99.90
21353;DHT22;10834;52.268;6.770;2022-10-16T06:16:04;11.80;99.90
21353;DHT22;10834;52.268;6.770;2022-10-16T06:18:55;11.70;99.90
21353;DHT22;10834;52.268;6.770;2022-10-16T06:21:45;11.70;99.90
21353;DHT22;10834;52.268;6.770;2022-10-16T06:24:31;11.70;99.90
21353;DHT22;10834;52.268;6.770;2022-10-16T06:27:17;11.80;99.90
21353;DHT22;10834;52.268;6.770;2022-10-16T06:30:04;11.90;99.90
21353;DHT22;10834;52.268;6.770;2022-10-16T06:32:50;11.80;99.90
21353;DHT22;10834;52.268;6.770;2022-10-16T06:35:36;11.80;99.90
21353;DHT22;10834;52.268;6.770;2022-10-16T06:38:22;11.80;99.90
21353;DHT22;10834;52.268;6.770;2022-10-16T06:41:11;11.80;99.90
21353;DHT22;10834;52.268;6.770;2022-10-16T06:43:58;11.80;99.90
21353;DHT22;10834;52.268;6.770;2022-10-16T06:46:44;11.80;99.90
21353;DHT22;10834;52.268;6.770;2022-10-16T06:49:29;11.90;99.90
21353;DHT22;10834;52.268;6.770;2022-10-16T06:52:16;11.90;99.90
21353;DHT22;10834;52.268;6.770;2022-10-16T06:55:02;12.00;99.90
21353;DHT22;10834;52.268;6.770;2022-10-16T06:57:48;12.10;99.90
21353;DHT22;10834;52.268;6.770;2022-10-16T07:00:34;12.30;99.90
21353;DHT22;10834;52.268;6.770;2022-10-16T07:03:20;12.50;99.90
21353;DHT22;10834;52.268;6.770;2022-10-16T07:06:07;12.70;99.90
21353;DHT22;10834;52.268;6.770;2022-10-16T07:08:54;13.00;99.90
21353;DHT22;10834;52.268;6.770;2022-10-16T07:11:40;13.40;99.90
21353;DHT22;10834;52.268;6.770;2022-10-16T07:14:26;13.80;99.90
21353;DHT22;10834;52.268;6.770;2022-10-16T07:17:13;13.90;99.90
21353;DHT22;10834;52.268;6.770;2022-10-16T07:19:59;14.00;99.90
21353;DHT22;10834;52.268;6.770;2022-10-16T07:22:45;14.10;99.90
21353;DHT22;10834;52.268;6.770;2022-10-16T07:25:31;14.20;99.90
21353;DHT22;10834;52.268;6.770;2022-10-16T07:28:17;14.30;99.90
21353;DHT22;10834;52.268;6.770;2022-10-16T07:31:09;14.40;99.90
21353;DHT22;10834;52.268;6.770;2022-10-16T07:33:58;14.30;99.90
21353;DHT22;10834;52.268;6.770;2022-10-16T07:36:48;14.30;99.90
21353;DHT22;10834;52.268;6.770;2022-10-16T07:39:34;14.30;99.90
21353;DHT22;10834;52.268;6.770;2022-10-16T07:42:20;14.30;99.90
21353;DHT22;10834;52.268;6.770;2022-10-16T07:45:06;14.30;99.90
21353;DHT22;10834;52.268;6.770;2022-10-16T07:47:53;14.30;99.90
21353;DHT22;10834;52.268;6.770;2022-10-16T07:50:39;14.60;99.90
21353;DHT22;10834;52.268;6.770;2022-10-16T07:53:25;14.80;99.90
21353;DHT22;10834;52.268;6.770;2022-10-16T07:56:11;15.10;99.90
21353;DHT22;10834;52.268;6.770;2022-10-16T07:58:57;15.10;99.90
21353;DHT22;10834;52.268;6.770;2022-10-16T08:01:43;15.30;99.90
21353;DHT22;10834;52.268;6.770;2022-10-16T08:04:29;15.60;99.90
21353;DHT22;10834;52.268;6.770;2022-10-16T08:07:15;15.90;99.90
21353;DHT22;10834;52.268;6.770;2022-10-16T08:10:02;16.20;99.90
21353;DHT22;10834;52.268;6.770;2022-10-16T08:12:48;16.50;99.90
21353;DHT22;10834;52.268;6.770;2022-10-16T08:15:34;16.60;99.90
21353;DHT22;10834;52.268;6.770;2022-10-16T08:18:20;16.50;99.90
21353;DHT22;10834;52.268;6.770;2022-10-16T08:21:08;16.50;99.90
21353;DHT22;10834;52.268;6.770;2022-10-16T08:23:57;16.40;99.90
21353;DHT22;10834;52.268;6.770;2022-10-16T08:26:44;16.50;99.90
21353;DHT22;10834;52.268;6.770;2022-10-16T08:29:30;16.50;99.90
21353;DHT22;10834;52.268;6.770;2022-10-16T08:32:16;16.40;99.90
21353;DHT22;10834;52.268;6.770;2022-10-16T08:35:02;16.60;99.90
21353;DHT22;10834;52.268;6.770;2022-10-16T08:37:49;16.90;99.90
21353;DHT22;10834;52.268;6.770;2022-10-16T08:40:37;17.00;99.90
21353;DHT22;10834;52.268;6.770;2022-10-16T08:47:26;17.20;99.90
21353;DHT22;10834;52.268;6.770;2022-10-16T08:50:24;17.50;99.90
21353;DHT22;10834;52.268;6.770;2022-10-16T08:53:17;18.00;99.90
21353;DHT22;10834;52.268;6.770;2022-10-16T08:56:05;18.50;99.90
21353;DHT22;10834;52.268;6.770;2022-10-16T08:58:53;19.10;99.90
21353;DHT22;10834;52.268;6.770;2022-10-16T09:01:51;19.20;99.90
21353;DHT22;10834;52.268;6.770;2022-10-16T09:07:42;19.30;99.90
21353;DHT22;10834;52.268;6.770;2022-10-16T09:23:29;20.00;99.90
21353;DHT22;10834;52.268;6.770;2022-10-16T09:26:16;20.10;99.90
21353;DHT22;10834;52.268;6.770;2022-10-16T09:29:03;20.40;99.90
21353;DHT22;10834;52.268;6.770;2022-10-16T09:31:50;20.20;99.90
21353;DHT22;10834;52.268;6.770;2022-10-16T09:34:42;19.80;99.90
21353;DHT22;10834;52.268;6.770;2022-10-16T09:37:29;19.50;99.90
21353;DHT22;10834;52.268;6.770;2022-10-16T09:40:34;19.20;99.90
21353;DHT22;10834;52.268;6.770;2022-10-16T09:46:29;19.00;99.90
21353;DHT22;10834;52.268;6.770;2022-10-16T09:52:14;18.90;99.90
21353;DHT22;10834;52.268;6.770;2022-10-16T09:55:12;19.00;99.90
21353;DHT22;10834;52.268;6.770;2022-10-16T09:57:59;19.10;99.90
21353;DHT22;10834;52.268;6.770;2022-10-16T10:00:54;19.10;99.90
21353;DHT22;10834;52.268;6.770;2022-10-16T10:03:42;19.10;99.90
21353;DHT22;10834;52.268;6.770;2022-10-16T10:06:32;18.90;99.90
21353;DHT22;10834;52.268;6.770;2022-10-16T10:12:28;18.70;99.90
21353;DHT22;10834;52.268;6.770;2022-10-16T10:15:18;18.90;99.90
21353;DHT22;10834;52.268;6.770;2022-10-16T10:18:18;19.10;99.90
21353;DHT22;10834;52.268;6.770;2022-10-16T10:21:12;18.90;99.90
21353;DHT22;10834;52.268;6.770;2022-10-16T10:24:00;18.80;99.90
21353;DHT22;10834;52.268;6.770;2022-10-16T10:27:11;18.70;99.90
21353;DHT22;10834;52.268;6.770;2022-10-16T10:33:18;18.80;99.90
21353;DHT22;10834;52.268;6.770;2022-10-16T10:36:23;18.80;99.90
21353;DHT22;10834;52.268;6.770;2022-10-16T10:42:27;19.10;99.90
21353;DHT22;10834;52.268;6.770;2022-10-16T10:48:20;19.20;99.90
21353;DHT22;10834;52.268;6.770;2022-10-16T10:54:35;19.40;99.90
21353;DHT22;10834;52.268;6.770;2022-10-16T11:06:50;20.20;99.90
21353;DHT22;10834;52.268;6.770;2022-10-16T11:09:41;20.20;99.90
21353;DHT22;10834;52.268;6.770;2022-10-16T11:12:44;20.20;99.90
21353;DHT22;10834;52.268;6.770;2022-10-16T11:15:34;20.00;99.90
21353;DHT22;10834;52.268;6.770;2022-10-16T11:18:52;19.90;99.90
21353;DHT22;10834;52.268;6.770;2022-10-16T11:21:49;19.80;99.90
21353;DHT22;10834;52.268;6.770;2022-10-16T11:24:46;19.80;99.90
21353;DHT22;10834;52.268;6.770;2022-10-16T11:33:41;19.70;99.90
21353;DHT22;10834;52.268;6.770;2022-10-16T11:37:01;19.40;99.90
21353;DHT22;10834;52.268;6.770;2022-10-16T11:39:50;19.40;99.90
21353;DHT22;10834;52.268;6.770;2022-10-16T11:42:44;19.20;99.90
21353;DHT22;10834;52.268;6.770;2022-10-16T11:51:33;18.50;99.90
21353;DHT22;10834;52.268;6.770;2022-10-16T12:03:59;18.40;99.90
21353;DHT22;10834;52.268;6.770;2022-10-16T12:18:44;18.40;99.90
21353;DHT22;10834;52.268;6.770;2022-10-16T12:44:44;18.80;99.90
21353;DHT22;10834;52.268;6.770;2022-10-16T13:29:29;18.10;99.90
21353;DHT22;10834;52.268;6.770;2022-10-16T13:47:18;17.30;99.90
21353;DHT22;10834;52.268;6.770;2022-10-16T14:21:55;16.40;99.90
21353;DHT22;10834;52.268;6.770;2022-10-16T14:51:42;15.50;99.90
21353;DHT22;10834;52.268;6.770;2022-10-16T14:59:05;15.50;99.90
21353;DHT22;10834;52.268;6.770;2022-10-16T15:02:43;15.50;99.90
21353;DHT22;10834;52.268;6.770;2022-10-16T15:06:04;15.40;99.90
21353;DHT22;10834;52.268;6.770;2022-10-16T15:09:54;15.40;99.90
21353;DHT22;10834;52.268;6.770;2022-10-16T15:23:54;15.00;99.90
21353;DHT22;10834;52.268;6.770;2022-10-16T15:27:22;14.90;99.90
21353;DHT22;10834;52.268;6.770;2022-10-16T15:42:03;14.50;99.90
21353;DHT22;10834;52.268;6.770;2022-10-16T15:56:36;14.40;99.90
21353;DHT22;10834;52.268;6.770;2022-10-16T16:37:47;13.20;99.90
21353;DHT22;10834;52.268;6.770;2022-10-16T17:10:43;12.80;99.90
21353;DHT22;10834;52.268;6.770;2022-10-16T18:58:47;12.80;99.90
21353;DHT22;10834;52.268;6.770;2022-10-16T19:06:22;12.90;99.90
21353;DHT22;10834;52.268;6.770;2022-10-16T21:21:17;13.50;99.90
21353;DHT22;10834;52.268;6.770;2022-10-16T21:24:37;13.50;99.90
21353;DHT22;10834;52.268;6.770;2022-10-16T22:05:25;13.60;99.90
21353;DHT22;10834;52.268;6.770;2022-10-16T22:28:04;13.50;99.90
21353;DHT22;10834;52.268;6.770;2022-10-16T22:43:17;13.50;99.90
21353;DHT22;10834;52.268;6.770;2022-10-16T22:50:31;13.50;99.90
21353;DHT22;10834;52.268;6.770;2022-10-16T22:53:59;13.30;99.90
